createdAt,value
2023-03-17T00:00:11.386Z,958.19
2023-03-17T00:08:05.216Z,958.14
2023-03-17T00:13:37.304Z,958.14
2023-03-17T00:19:09.521Z,958.10
2023-03-17T00:24:41.820Z,958.04
2023-03-17T00:30:13.714Z,958.00
2023-03-17T00:35:45.458Z,957.94
2023-03-17T00:41:17.493Z,957.92
2023-03-17T00:46:49.431Z,957.90
2023-03-17T00:52:20.862Z,957.92
2023-03-17T00:57:52.687Z,957.88
2023-03-17T01:03:24.803Z,957.86
2023-03-17T01:08:56.398Z,957.78
2023-03-17T01:14:28.371Z,957.72
2023-03-17T01:19:59.871Z,957.63
2023-03-17T01:25:31.666Z,957.57
2023-03-17T01:31:03.643Z,957.51
2023-03-17T01:36:35.163Z,957.49
2023-03-17T01:42:06.969Z,957.41
2023-03-17T01:47:38.466Z,957.33
2023-03-17T01:53:09.985Z,957.25
2023-03-17T01:58:41.998Z,957.17
2023-03-17T02:04:13.694Z,957.12
2023-03-17T02:09:45.457Z,957.08
2023-03-17T02:15:17.409Z,957.06
2023-03-17T02:20:49.605Z,956.98
2023-03-17T02:26:22.080Z,956.86
2023-03-17T02:31:54.135Z,956.74
2023-03-17T02:37:25.839Z,956.70
2023-03-17T02:48:28.270Z,956.65
2023-03-17T02:54:00.345Z,956.61
2023-03-17T02:59:32.835Z,956.59
2023-03-17T03:05:04.716Z,956.47
2023-03-17T03:10:36.633Z,956.55
2023-03-17T03:16:08.094Z,956.55
2023-03-17T03:22:04.498Z,956.45
2023-03-17T03:27:36.528Z,956.45
2023-03-17T03:33:08.478Z,956.45
2023-03-17T03:38:40.118Z,956.45
2023-03-17T03:44:11.952Z,956.55
2023-03-17T03:49:43.871Z,956.55
2023-03-17T03:55:15.726Z,956.55
2023-03-17T04:00:47.839Z,956.47
2023-03-17T04:06:19.410Z,956.41
2023-03-17T04:11:51.702Z,956.41
2023-03-17T04:17:23.379Z,956.39
2023-03-17T04:22:55.923Z,956.37
2023-03-17T04:28:27.981Z,956.33
2023-03-17T04:34:00.004Z,956.33
2023-03-17T04:39:32.106Z,956.35
2023-03-17T04:45:04.230Z,956.37
2023-03-17T04:50:36.072Z,956.41
2023-03-17T04:56:07.396Z,956.45
2023-03-17T05:01:39.337Z,956.43
2023-03-17T05:07:11.051Z,956.39
2023-03-17T05:12:42.853Z,956.39
2023-03-17T05:18:14.792Z,956.37
2023-03-17T05:23:46.641Z,956.37
2023-03-17T05:29:18.888Z,956.33
2023-03-17T05:34:50.790Z,956.35
2023-03-17T05:40:23.929Z,956.31
2023-03-17T05:45:54.435Z,956.27
2023-03-17T05:51:26.331Z,956.27
2023-03-17T05:56:58.128Z,956.27
2023-03-17T06:02:29.875Z,956.29
2023-03-17T06:08:01.756Z,956.29
2023-03-17T06:13:33.823Z,956.31
2023-03-17T06:19:05.746Z,956.27
2023-03-17T06:24:37.627Z,956.29
2023-03-17T06:30:09.289Z,956.23
2023-03-17T06:35:41.706Z,956.21
2023-03-17T06:41:13.661Z,956.17
2023-03-17T06:46:45.412Z,956.19
2023-03-17T06:52:16.949Z,956.23
2023-03-17T06:57:50.935Z,956.23
2023-03-17T07:05:42.759Z,956.14
2023-03-17T07:11:14.350Z,956.17
2023-03-17T07:22:15.870Z,956.21
2023-03-17T07:27:47.976Z,956.21
2023-03-17T07:33:19.878Z,956.21
2023-03-17T07:38:51.565Z,956.21
2023-03-17T07:44:23.238Z,956.27
2023-03-17T07:49:55.301Z,956.29
2023-03-17T07:55:26.991Z,956.35
2023-03-17T08:00:58.960Z,956.31
2023-03-17T08:06:30.372Z,956.33
2023-03-17T08:12:02.683Z,956.35
2023-03-17T08:17:34.758Z,956.37
2023-03-17T08:23:06.531Z,956.35
2023-03-17T08:28:38.439Z,956.35
2023-03-17T08:34:11.013Z,956.31
2023-03-17T08:39:42.993Z,956.25
2023-03-17T08:45:15.082Z,956.19
2023-03-17T08:50:46.307Z,956.21
2023-03-17T08:56:18.165Z,956.19
2023-03-17T09:01:50.222Z,956.27
2023-03-17T09:07:22.384Z,956.23
2023-03-17T09:12:54.436Z,956.19
2023-03-17T09:18:26.315Z,956.10
2023-03-17T09:23:59.263Z,956.02
2023-03-17T09:29:29.771Z,955.98
2023-03-17T09:35:01.720Z,955.98
2023-03-17T09:40:34.223Z,955.90
2023-03-17T09:46:06.051Z,955.82
2023-03-17T09:51:38.126Z,955.80
2023-03-17T09:57:10.301Z,955.78
2023-03-17T10:02:42.458Z,955.72
2023-03-17T10:08:29.656Z,955.70
2023-03-17T10:13:46.321Z,955.66
2023-03-17T10:19:17.810Z,955.64
2023-03-17T10:24:49.604Z,955.61
2023-03-17T10:30:21.816Z,955.59
2023-03-17T10:35:54.265Z,955.57
2023-03-17T10:41:26.802Z,955.53
2023-03-17T10:46:58.547Z,955.55
2023-03-17T10:52:30.545Z,955.51
2023-03-17T10:58:02.588Z,955.49
2023-03-17T11:03:34.378Z,955.47
2023-03-17T11:09:05.886Z,955.39
2023-03-17T11:14:37.666Z,955.35
2023-03-17T11:20:09.359Z,955.27
2023-03-17T11:25:41.528Z,955.21
2023-03-17T11:31:13.861Z,955.15
2023-03-17T11:36:45.460Z,955.14
2023-03-17T11:42:17.229Z,955.06
2023-03-17T11:53:18.930Z,954.94
2023-03-17T11:58:50.729Z,954.86
2023-03-17T12:04:22.895Z,954.84
2023-03-17T12:09:54.928Z,954.78
2023-03-17T12:15:27.189Z,954.74
2023-03-17T12:20:59.421Z,954.68
2023-03-17T12:26:31.000Z,954.67
2023-03-17T12:32:03.215Z,954.61
2023-03-17T12:37:35.536Z,954.55
2023-03-17T12:45:30.071Z,954.39
2023-03-17T12:51:01.256Z,954.39
2023-03-17T12:56:33.495Z,954.37
2023-03-17T13:02:05.623Z,954.35
2023-03-17T13:07:38.048Z,954.29
2023-03-17T13:13:09.856Z,954.27
2023-03-17T13:18:41.505Z,954.23
2023-03-17T13:24:13.960Z,954.19
2023-03-17T13:29:45.823Z,954.17
2023-03-17T13:35:17.287Z,954.16
2023-03-17T13:40:48.934Z,954.12
2023-03-17T13:46:20.698Z,954.10
2023-03-17T13:51:59.486Z,954.06
2023-03-17T13:57:24.139Z,954.04
2023-03-17T14:03:19.812Z,953.88
2023-03-17T14:08:50.954Z,953.82
2023-03-17T14:14:32.086Z,953.78
2023-03-17T14:19:53.651Z,953.76
2023-03-17T14:25:25.162Z,953.74
2023-03-17T14:30:56.817Z,953.70
2023-03-17T14:36:28.159Z,953.68
2023-03-17T14:42:00.002Z,953.68
2023-03-17T14:47:32.076Z,953.60
2023-03-17T14:53:04.326Z,953.57
2023-03-17T14:58:35.978Z,953.51
2023-03-17T15:09:37.151Z,953.41
2023-03-17T15:15:09.386Z,953.37
2023-03-17T15:20:41.106Z,953.37
2023-03-17T15:26:13.350Z,953.37
2023-03-17T15:31:45.468Z,953.33
2023-03-17T15:37:17.508Z,953.31
2023-03-17T15:42:49.392Z,953.29
2023-03-17T15:48:20.908Z,953.27
2023-03-17T15:53:52.381Z,953.23
2023-03-17T15:59:23.562Z,953.17
2023-03-17T16:04:55.250Z,953.15
2023-03-17T16:10:26.820Z,953.12
2023-03-17T16:15:58.584Z,953.08
2023-03-17T16:21:30.189Z,953.08
2023-03-17T16:27:02.349Z,953.08
2023-03-17T16:32:34.146Z,953.04
2023-03-17T16:38:05.401Z,952.96
2023-03-17T16:43:37.350Z,952.92
2023-03-17T16:49:09.070Z,952.94
2023-03-17T16:54:40.971Z,952.90
2023-03-17T17:00:12.608Z,952.94
2023-03-17T17:05:44.642Z,952.98
2023-03-17T17:11:16.681Z,953.04
2023-03-17T17:16:48.449Z,953.06
2023-03-17T17:24:42.150Z,953.06
2023-03-17T17:30:14.114Z,953.08
2023-03-17T17:35:45.599Z,953.08
2023-03-17T17:41:17.277Z,953.08
2023-03-17T17:52:18.591Z,953.06
2023-03-17T17:57:52.383Z,953.04
2023-03-17T18:03:22.048Z,953.06
2023-03-17T18:08:54.267Z,953.08
2023-03-17T18:14:26.274Z,953.12
2023-03-17T18:19:58.637Z,953.15
2023-03-17T18:25:30.815Z,953.21
2023-03-17T18:31:03.303Z,953.19
2023-03-17T18:36:35.214Z,953.21
2023-03-17T18:42:07.093Z,953.25
2023-03-17T18:47:38.666Z,953.31
2023-03-17T18:53:10.261Z,953.31
2023-03-17T18:58:42.386Z,953.31
2023-03-17T19:04:13.872Z,953.29
2023-03-17T19:09:46.026Z,953.31
2023-03-17T19:15:17.914Z,953.35
2023-03-17T19:20:50.238Z,953.39
2023-03-17T19:26:22.151Z,953.39
2023-03-17T19:31:54.168Z,953.39
2023-03-17T19:37:26.252Z,953.43
2023-03-17T19:42:58.010Z,953.47
2023-03-17T19:48:29.749Z,953.51
2023-03-17T19:54:01.361Z,953.49
2023-03-17T19:59:33.312Z,953.49
2023-03-17T20:05:05.097Z,953.49
2023-03-17T20:10:37.437Z,953.51
2023-03-17T20:16:09.288Z,953.51
2023-03-17T20:21:41.044Z,953.55
2023-03-17T20:27:12.680Z,953.53
2023-03-17T20:32:44.815Z,953.53
2023-03-17T20:38:16.674Z,953.59
2023-03-17T20:43:48.270Z,953.59
2023-03-17T20:49:20.317Z,953.60
2023-03-17T20:54:51.926Z,953.66
2023-03-17T21:00:23.808Z,953.70
2023-03-17T21:05:55.370Z,953.72
2023-03-17T21:11:27.148Z,953.74
2023-03-17T21:16:58.720Z,953.74
2023-03-17T21:22:30.368Z,953.82
2023-03-17T21:28:02.571Z,953.98
2023-03-17T21:33:34.315Z,954.02
2023-03-17T21:39:06.300Z,954.04
2023-03-17T21:44:38.399Z,954.06
2023-03-17T21:50:10.589Z,954.12
2023-03-17T21:55:42.054Z,954.14
2023-03-17T22:01:14.205Z,954.19
2023-03-17T22:06:46.014Z,954.17
2023-03-17T22:12:17.883Z,954.19
2023-03-17T22:17:49.582Z,954.23
2023-03-17T22:23:21.762Z,954.21
2023-03-17T22:28:53.258Z,954.23
2023-03-17T22:34:25.990Z,954.27
2023-03-17T22:39:58.150Z,954.31
2023-03-17T22:45:29.950Z,954.35
2023-03-17T22:51:01.410Z,954.35
2023-03-17T22:56:33.374Z,954.37
2023-03-17T23:02:04.915Z,954.39
2023-03-17T23:07:48.017Z,954.41
2023-03-17T23:13:07.749Z,954.43
2023-03-17T23:18:39.373Z,954.51
2023-03-17T23:24:11.182Z,954.53
2023-03-17T23:29:43.048Z,954.61
2023-03-17T23:35:14.897Z,954.65
2023-03-17T23:40:46.538Z,954.65
2023-03-17T23:46:18.456Z,954.65
2023-03-17T23:51:50.733Z,954.67
2023-03-17T23:57:22.378Z,954.67
